Time;durP1;ratioP1;P1;durP2;ratioP2;P2;SDS_P1;SDS_P2;PMS_P1;PMS_P2;Temp;Humidity;BMP_temperature;BMP_pressure;BME280_temperature;BME280_humidity;BME280_pressure;Samples;Min_cycle;Max_cycle;Signal;HPM_P1;HPM_P2
2021/07/05 00:00:43;;;;;;;8.90;0.98;;;;;;;;;;5072653;28;20021;-53
2021/07/05 00:03:08;;;;;;;1.83;0.90;;;;;;;;;;5072157;28;20037;-52
2021/07/05 00:05:34;;;;;;;1.23;0.73;;;;;;;;;;5072231;28;20049;-53
2021/07/05 00:07:59;;;;;;;4.95;1.05;;;;;;;;;;5070896;28;20382;-53
2021/07/05 00:10:25;;;;;;;2.55;0.90;;;;;;;;;;5070854;28;20041;-53
2021/07/05 00:12:52;;;;;;;0.82;0.80;;;;;;;;;;5072187;28;20475;-53
2021/07/05 00:15:22;;;;;;;0.85;0.75;;;;;;;;;;5072093;28;20124;-52
2021/07/05 00:17:52;;;;;;;0.98;0.70;;;;;;;;;;5072302;28;20033;-51
2021/07/05 00:20:18;;;;;;;0.75;0.60;;;;;;;;;;5072373;28;20036;-52
2021/07/05 00:22:43;;;;;;;0.80;0.60;;;;;;;;;;5072027;28;20040;-52
2021/07/05 00:25:09;;;;;;;0.80;0.50;;;;;;;;;;5071990;28;20145;-51
2021/07/05 00:27:34;;;;;;;0.40;0.32;;;;;;;;;;5072278;28;20040;-53
2021/07/05 00:30:00;;;;;;;1.58;1.13;;;;;;;;;;5071897;28;20012;-52
2021/07/05 00:32:25;;;;;;;1.20;0.55;;;;;;;;;;5071966;28;20036;-52
2021/07/05 00:34:51;;;;;;;0.55;0.40;;;;;;;;;;5071965;28;20017;-53
2021/07/05 00:37:16;;;;;;;1.33;0.52;;;;;;;;;;5072025;28;20041;-53
2021/07/05 00:39:41;;;;;;;0.88;0.47;;;;;;;;;;5071889;28;20021;-52
2021/07/05 00:42:07;;;;;;;0.40;0.40;;;;;;;;;;5072197;28;20025;-53
2021/07/05 00:44:32;;;;;;;0.30;0.30;;;;;;;;;;5071824;28;20610;-53
2021/07/05 00:46:57;;;;;;;3.25;1.15;;;;;;;;;;5071851;28;20099;-52
2021/07/05 00:49:23;;;;;;;2.78;0.60;;;;;;;;;;5073163;28;20051;-53
2021/07/05 00:51:48;;;;;;;0.50;0.50;;;;;;;;;;5075348;28;20120;-53
2021/07/05 00:54:13;;;;;;;0.52;0.40;;;;;;;;;;5075593;28;20025;-53
2021/07/05 00:56:39;;;;;;;0.60;0.57;;;;;;;;;;5075633;28;20025;-52
2021/07/05 00:59:05;;;;;;;0.50;0.30;;;;;;;;;;5075614;28;20021;-52
2021/07/05 01:01:30;;;;;;;0.40;0.40;;;;;;;;;;5075526;28;20493;-52
2021/07/05 01:03:56;;;;;;;0.90;0.50;;;;;;;;;;5075545;28;20021;-53
2021/07/05 01:06:21;;;;;;;0.80;0.60;;;;;;;;;;5075365;28;20125;-53
2021/07/05 01:08:47;;;;;;;0.55;0.55;;;;;;;;;;5075293;28;20016;-53
2021/07/05 01:11:12;;;;;;;0.85;0.52;;;;;;;;;;5075247;28;20542;-53
2021/07/05 01:13:38;;;;;;;0.47;0.40;;;;;;;;;;5075397;28;20021;-52
2021/07/05 01:16:03;;;;;;;0.45;0.30;;;;;;;;;;5075134;28;20036;-52
2021/07/05 01:18:28;;;;;;;0.50;0.40;;;;;;;;;;5075182;28;20444;-53
2021/07/05 01:20:57;;;;;;;0.75;0.45;;;;;;;;;;5074948;28;20037;-50
2021/07/05 01:23:22;;;;;;;0.63;0.52;;;;;;;;;;5075033;28;20017;-53
2021/07/05 01:25:47;;;;;;;0.52;0.50;;;;;;;;;;5074965;28;20029;-52
2021/07/05 01:28:13;;;;;;;0.60;0.28;;;;;;;;;;5074887;28;20530;-52
2021/07/05 01:30:40;;;;;;;2.88;0.80;;;;;;;;;;5090471;28;20052;-52
2021/07/05 01:33:07;;;;;;;0.55;0.45;;;;;;;;;;5074895;28;20095;-53
2021/07/05 01:35:32;;;;;;;0.90;0.60;;;;;;;;;;5073455;28;20037;-52
2021/07/05 01:37:58;;;;;;;1.13;0.70;;;;;;;;;;5074816;28;20020;-52
2021/07/05 01:40:24;;;;;;;2.22;0.70;;;;;;;;;;5073462;28;20502;-53
2021/07/05 01:42:52;;;;;;;0.93;0.50;;;;;;;;;;5074580;28;20032;-53
2021/07/05 01:45:22;;;;;;;0.95;0.63;;;;;;;;;;5074948;28;20032;-52
2021/07/05 01:47:48;;;;;;;3.03;0.80;;;;;;;;;;5073182;28;20037;-52
2021/07/05 01:50:13;;;;;;;2.05;0.63;;;;;;;;;;5089941;28;20051;-52
2021/07/05 01:52:39;;;;;;;1.02;0.70;;;;;;;;;;5074457;28;20024;-52
2021/07/05 01:55:05;;;;;;;0.73;0.70;;;;;;;;;;5074303;28;20039;-53
2021/07/05 01:57:33;;;;;;;1.42;0.80;;;;;;;;;;5074478;28;20095;-53
2021/07/05 01:59:59;;;;;;;4.53;1.88;;;;;;;;;;5073824;28;20042;-53
2021/07/05 02:02:25;;;;;;;1.05;0.60;;;;;;;;;;5074349;28;20025;-51
2021/07/05 02:04:51;;;;;;;1.00;0.90;;;;;;;;;;5074379;28;20051;-53
2021/07/05 02:07:17;;;;;;;1.92;1.20;;;;;;;;;;5074217;28;20407;-52
2021/07/05 02:09:43;;;;;;;1.48;1.00;;;;;;;;;;5074446;28;20111;-53
2021/07/05 02:12:09;;;;;;;3.90;1.20;;;;;;;;;;5073960;28;20028;-52
2021/07/05 02:14:35;;;;;;;4.05;1.20;;;;;;;;;;5074372;28;20021;-53
2021/07/05 02:17:00;;;;;;;4.93;0.98;;;;;;;;;;5073930;28;20024;-52
2021/07/05 02:19:26;;;;;;;2.38;0.88;;;;;;;;;;5073950;28;20112;-52
2021/07/05 02:21:51;;;;;;;4.57;1.02;;;;;;;;;;5072611;28;20016;-52
2021/07/05 02:24:17;;;;;;;1.20;0.85;;;;;;;;;;5073771;28;20035;-53
2021/07/05 02:26:43;;;;;;;1.63;1.38;;;;;;;;;;5073903;28;20020;-53
2021/07/05 02:29:09;;;;;;;3.78;1.95;;;;;;;;;;5073742;28;20029;-52
2021/07/05 02:31:34;;;;;;;1.85;1.40;;;;;;;;;;5073858;28;20387;-53
2021/07/05 02:34:00;;;;;;;1.98;1.27;;;;;;;;;;5073685;28;20096;-51
2021/07/05 02:36:25;;;;;;;2.00;1.30;;;;;;;;;;5073868;28;20016;-52
2021/07/05 02:38:50;;;;;;;3.60;1.90;;;;;;;;;;5073472;28;20029;-52
2021/07/05 02:41:16;;;;;;;1.92;1.50;;;;;;;;;;5073879;28;20013;-51
2021/07/05 02:43:41;;;;;;;1.90;1.27;;;;;;;;;;5089031;28;20082;-52
2021/07/05 02:46:07;;;;;;;3.83;2.03;;;;;;;;;;5088974;28;20058;-52
2021/07/05 02:48:32;;;;;;;3.75;1.65;;;;;;;;;;5073472;28;20073;-52
2021/07/05 02:51:03;;;;;;;2.00;1.33;;;;;;;;;;5073016;28;20059;-51
2021/07/05 02:53:28;;;;;;;3.33;1.83;;;;;;;;;;5073512;28;20074;-52
2021/07/05 02:55:54;;;;;;;4.07;1.58;;;;;;;;;;5073170;28;20028;-51
2021/07/05 02:58:20;;;;;;;5.50;1.27;;;;;;;;;;5073273;28;20081;-51
2021/07/05 03:00:47;;;;;;;5.35;1.13;;;;;;;;;;5073364;28;20016;-52
2021/07/05 03:03:12;;;;;;;2.17;1.33;;;;;;;;;;5073431;28;20068;-51
2021/07/05 03:05:38;;;;;;;3.17;0.90;;;;;;;;;;5071836;28;20021;-51
2021/07/05 03:08:04;;;;;;;4.20;1.50;;;;;;;;;;5072910;28;20044;-52
2021/07/05 03:10:32;;;;;;;9.85;1.83;;;;;;;;;;5072974;28;20079;-53
2021/07/05 03:12:58;;;;;;;1.58;1.13;;;;;;;;;;5072173;28;20040;-52
2021/07/05 03:15:23;;;;;;;2.10;1.52;;;;;;;;;;5071944;28;20028;-52
2021/07/05 03:17:49;;;;;;;3.92;2.05;;;;;;;;;;5073130;28;20535;-52
2021/07/05 03:20:17;;;;;;;1.98;1.30;;;;;;;;;;5071878;28;20343;-52
2021/07/05 03:22:44;;;;;;;1.08;0.98;;;;;;;;;;5072799;28;20032;-52
2021/07/05 03:25:10;;;;;;;1.50;0.95;;;;;;;;;;5072636;28;20017;-52
2021/07/05 03:27:36;;;;;;;4.13;1.70;;;;;;;;;;5072756;28;20032;-52
2021/07/05 03:30:03;;;;;;;1.65;1.20;;;;;;;;;;5072564;28;20016;-52
2021/07/05 03:32:28;;;;;;;0.80;0.70;;;;;;;;;;5072907;28;20107;-52
2021/07/05 03:34:54;;;;;;;2.63;0.68;;;;;;;;;;5072826;28;20067;-52
2021/07/05 03:37:19;;;;;;;3.72;0.77;;;;;;;;;;5072667;28;20025;-51
2021/07/05 03:39:45;;;;;;;1.92;0.90;;;;;;;;;;5072537;28;20016;-52
2021/07/05 03:42:10;;;;;;;0.90;0.80;;;;;;;;;;5072710;28;20115;-51
2021/07/05 03:44:35;;;;;;;0.95;0.63;;;;;;;;;;5072646;28;20016;-52
2021/07/05 03:47:01;;;;;;;1.05;0.57;;;;;;;;;;5072758;28;20028;-52
2021/07/05 03:49:26;;;;;;;1.10;0.82;;;;;;;;;;5072234;28;20072;-52
2021/07/05 03:51:52;;;;;;;0.60;0.50;;;;;;;;;;5072269;28;20044;-52
2021/07/05 03:54:17;;;;;;;5.00;0.90;;;;;;;;;;5072639;28;20032;-51
2021/07/05 03:56:43;;;;;;;2.90;0.45;;;;;;;;;;5072286;28;20060;-52
2021/07/05 03:59:08;;;;;;;1.02;0.50;;;;;;;;;;5072266;28;20099;-51
2021/07/05 04:01:34;;;;;;;2.53;0.40;;;;;;;;;;5071182;28;20104;-51
2021/07/05 04:03:59;;;;;;;1.38;0.45;;;;;;;;;;5072040;28;20038;-51
2021/07/05 04:06:25;;;;;;;0.65;0.50;;;;;;;;;;5072253;28;20032;-51
2021/07/05 04:08:50;;;;;;;1.10;0.65;;;;;;;;;;5072454;28;20027;-51
2021/07/05 04:11:16;;;;;;;1.27;0.70;;;;;;;;;;5072360;28;20051;-51
2021/07/05 04:13:41;;;;;;;1.90;0.60;;;;;;;;;;5070950;28;20013;-51
2021/07/05 04:16:07;;;;;;;0.55;0.55;;;;;;;;;;5072064;28;20111;-52
2021/07/05 04:18:32;;;;;;;0.63;0.50;;;;;;;;;;5072095;28;20055;-51
2021/07/05 04:20:57;;;;;;;1.65;1.55;;;;;;;;;;5072082;28;20036;-51
2021/07/05 04:23:26;;;;;;;0.50;0.40;;;;;;;;;;5073552;28;20050;-50
2021/07/05 04:25:52;;;;;;;0.63;0.38;;;;;;;;;;5074774;28;20036;-51
2021/07/05 04:28:17;;;;;;;1.50;0.63;;;;;;;;;;5076367;28;20028;-52
2021/07/05 04:30:43;;;;;;;0.68;0.52;;;;;;;;;;5076042;28;20257;-51
2021/07/05 04:33:08;;;;;;;4.47;0.90;;;;;;;;;;5076206;28;20027;-51
2021/07/05 04:35:34;;;;;;;1.83;0.90;;;;;;;;;;5076149;28;20028;-52
2021/07/05 04:37:59;;;;;;;0.60;0.60;;;;;;;;;;5076183;28;20012;-51
2021/07/05 04:40:26;;;;;;;3.30;0.90;;;;;;;;;;5075834;28;20073;-50
2021/07/05 04:42:52;;;;;;;1.05;0.95;;;;;;;;;;5076026;28;20012;-52
2021/07/05 04:45:19;;;;;;;1.40;0.60;;;;;;;;;;5076102;28;20033;-51
2021/07/05 04:47:44;;;;;;;4.35;0.80;;;;;;;;;;5075607;28;20020;-51
2021/07/05 04:50:11;;;;;;;4.70;2.58;;;;;;;;;;5075460;28;20140;-51
2021/07/05 04:52:37;;;;;;;4.72;2.30;;;;;;;;;;5075677;28;20060;-51
2021/07/05 04:55:03;;;;;;;3.63;1.48;;;;;;;;;;5075449;28;20546;-51
2021/07/05 04:57:29;;;;;;;3.50;2.33;;;;;;;;;;5075618;28;20490;-52
2021/07/05 04:59:54;;;;;;;1.10;1.00;;;;;;;;;;5075654;28;20024;-51
2021/07/05 05:02:23;;;;;;;1.88;1.10;;;;;;;;;;5075752;28;20009;-52
2021/07/05 05:04:49;;;;;;;1.40;0.93;;;;;;;;;;5075293;28;20047;-51
2021/07/05 05:07:14;;;;;;;0.65;0.60;;;;;;;;;;5075527;28;20016;-51
2021/07/05 05:09:39;;;;;;;1.83;0.73;;;;;;;;;;5075316;28;20032;-51
2021/07/05 05:12:05;;;;;;;1.80;0.70;;;;;;;;;;5075146;28;20040;-52
2021/07/05 05:14:30;;;;;;;1.45;0.77;;;;;;;;;;5075436;28;20028;-52
2021/07/05 05:16:56;;;;;;;0.65;0.60;;;;;;;;;;5075394;28;20030;-51
2021/07/05 05:19:21;;;;;;;1.23;0.50;;;;;;;;;;5075158;28;20505;-52
2021/07/05 05:21:46;;;;;;;0.88;0.60;;;;;;;;;;5075103;28;20021;-51
2021/07/05 05:24:12;;;;;;;0.68;0.40;;;;;;;;;;5073657;28;20025;-51
2021/07/05 05:26:37;;;;;;;1.52;0.40;;;;;;;;;;5075293;28;20576;-50
2021/07/05 05:29:02;;;;;;;0.40;0.40;;;;;;;;;;5074932;28;20111;-51
2021/07/05 05:31:30;;;;;;;0.40;0.40;;;;;;;;;;5074864;28;20071;-51
2021/07/05 05:33:55;;;;;;;0.82;0.50;;;;;;;;;;5075065;28;20122;-50
2021/07/05 05:36:21;;;;;;;3.45;1.52;;;;;;;;;;5074069;28;20035;-50
2021/07/05 05:38:48;;;;;;;8.05;4.35;;;;;;;;;;5074802;28;20052;-49
2021/07/05 05:41:13;;;;;;;8.00;4.32;;;;;;;;;;5074981;28;20103;-50
2021/07/05 05:43:39;;;;;;;5.72;3.40;;;;;;;;;;5074787;28;20494;-51
2021/07/05 05:46:04;;;;;;;6.35;4.07;;;;;;;;;;5074595;28;20062;-50
2021/07/05 05:48:30;;;;;;;5.93;3.28;;;;;;;;;;5090321;28;20028;-51
2021/07/05 05:50:56;;;;;;;4.25;2.33;;;;;;;;;;5074198;28;20051;-51
2021/07/05 05:53:22;;;;;;;2.25;1.67;;;;;;;;;;5074514;28;20119;-51
2021/07/05 05:55:47;;;;;;;2.25;1.35;;;;;;;;;;5074385;28;20023;-50
2021/07/05 05:58:16;;;;;;;3.33;1.50;;;;;;;;;;5074330;28;20111;-50
2021/07/05 06:00:42;;;;;;;1.88;1.40;;;;;;;;;;5074395;28;20379;-50
2021/07/05 06:03:08;;;;;;;2.25;1.55;;;;;;;;;;5072929;28;20283;-50
2021/07/05 06:05:33;;;;;;;1.42;1.08;;;;;;;;;;5074286;28;20030;-50
2021/07/05 06:07:59;;;;;;;1.30;1.00;;;;;;;;;;5074417;28;20032;-55
2021/07/05 06:10:24;;;;;;;1.73;0.77;;;;;;;;;;5074430;28;20020;-51
2021/07/05 06:12:50;;;;;;;1.38;0.65;;;;;;;;;;5074204;28;20477;-51
2021/07/05 06:15:18;;;;;;;1.70;0.63;;;;;;;;;;5074049;28;20081;-51
2021/07/05 06:17:45;;;;;;;2.55;0.50;;;;;;;;;;5074038;28;20115;-50
2021/07/05 06:20:12;;;;;;;0.95;0.35;;;;;;;;;;5089122;28;20031;-50
2021/07/05 06:22:43;;;;;;;0.50;0.50;;;;;;;;;;5073723;28;20090;-51
2021/07/05 06:25:09;;;;;;;0.63;0.38;;;;;;;;;;5073786;28;20063;-50
2021/07/05 06:27:34;;;;;;;0.63;0.40;;;;;;;;;;5073722;28;20044;-49
2021/07/05 06:30:00;;;;;;;0.40;0.40;;;;;;;;;;5074003;28;20035;-50
2021/07/05 06:32:25;;;;;;;2.95;0.95;;;;;;;;;;5073903;28;20383;-50
2021/07/05 06:34:51;;;;;;;0.55;0.40;;;;;;;;;;5072288;28;20493;-50
2021/07/05 06:37:16;;;;;;;0.22;0.22;;;;;;;;;;5074032;28;20024;-50
2021/07/05 06:39:41;;;;;;;0.43;0.30;;;;;;;;;;5073617;28;20108;-49
2021/07/05 06:42:07;;;;;;;0.22;0.20;;;;;;;;;;5073724;28;20486;-50
2021/07/05 06:44:32;;;;;;;0.32;0.30;;;;;;;;;;5073515;28;20509;-50
2021/07/05 06:46:58;;;;;;;0.63;0.35;;;;;;;;;;5073694;28;20521;-50
2021/07/05 06:49:23;;;;;;;0.65;0.38;;;;;;;;;;5073258;28;20056;-50
2021/07/05 06:51:49;;;;;;;3.10;0.82;;;;;;;;;;5088908;28;20048;-50
2021/07/05 06:54:15;;;;;;;0.45;0.30;;;;;;;;;;5073403;28;20032;-50
2021/07/05 06:56:40;;;;;;;1.65;0.70;;;;;;;;;;5073320;28;20016;-50
2021/07/05 06:59:06;;;;;;;0.43;0.30;;;;;;;;;;5073091;28;20070;-50
2021/07/05 07:01:32;;;;;;;0.65;0.30;;;;;;;;;;5073248;28;20048;-50
2021/07/05 07:03:58;;;;;;;1.65;0.28;;;;;;;;;;5072924;28;20479;-49
2021/07/05 07:06:23;;;;;;;2.92;0.40;;;;;;;;;;5073182;28;20155;-50
2021/07/05 07:08:48;;;;;;;0.22;0.22;;;;;;;;;;5073083;28;20085;-50
2021/07/05 07:11:13;;;;;;;1.25;0.40;;;;;;;;;;5072867;28;20032;-50
2021/07/05 07:13:40;;;;;;;0.45;0.30;;;;;;;;;;5073204;28;20489;-50
2021/07/05 07:16:06;;;;;;;2.50;0.22;;;;;;;;;;5073059;28;20024;-50
2021/07/05 07:21:00;;;;;;;2.03;0.40;;;;;;;;;;5073100;28;20017;-51
2021/07/05 07:23:26;;;;;;;2.17;0.30;;;;;;;;;;5072687;28;20028;-50
2021/07/05 07:25:51;;;;;;;0.55;0.40;;;;;;;;;;5073080;28;20009;-50
2021/07/05 07:28:17;;;;;;;3.00;0.50;;;;;;;;;;5073209;28;20037;-50
2021/07/05 07:30:43;;;;;;;2.15;0.47;;;;;;;;;;5072825;28;20417;-50
2021/07/05 07:33:08;;;;;;;0.63;0.28;;;;;;;;;;5072551;28;20475;-50
2021/07/05 07:35:33;;;;;;;0.38;0.15;;;;;;;;;;5072896;28;20036;-49
2021/07/05 07:37:59;;;;;;;0.93;0.32;;;;;;;;;;5071196;28;20024;-50
2021/07/05 07:40:28;;;;;;;0.85;0.22;;;;;;;;;;5072884;28;20070;-50
2021/07/05 07:42:53;;;;;;;0.25;0.10;;;;;;;;;;5072871;28;20046;-50
2021/07/05 07:45:19;;;;;;;2.83;0.28;;;;;;;;;;5071545;28;20050;-51
2021/07/05 07:47:45;;;;;;;0.25;0.20;;;;;;;;;;5072437;28;20024;-50
2021/07/05 07:50:12;;;;;;;0.63;0.25;;;;;;;;;;5072317;28;20044;-50
2021/07/05 07:52:37;;;;;;;4.50;0.63;;;;;;;;;;5072256;28;20037;-50
2021/07/05 07:55:07;;;;;;;0.40;0.30;;;;;;;;;;5072269;28;20047;-51
2021/07/05 07:57:33;;;;;;;2.80;0.43;;;;;;;;;;5072289;28;20029;-50
2021/07/05 07:59:58;;;;;;;0.40;0.30;;;;;;;;;;5072161;28;20368;-51
2021/07/05 08:02:23;;;;;;;0.38;0.38;;;;;;;;;;5072432;28;20064;-51
2021/07/05 08:04:49;;;;;;;0.40;0.40;;;;;;;;;;5087776;28;20055;-51
2021/07/05 08:07:14;;;;;;;2.55;0.50;;;;;;;;;;5072230;28;20032;-50
2021/07/05 08:09:40;;;;;;;0.40;0.20;;;;;;;;;;5072309;28;20059;-51
2021/07/05 08:12:07;;;;;;;0.55;0.20;;;;;;;;;;5072077;28;20041;-50
2021/07/05 08:14:32;;;;;;;0.55;0.20;;;;;;;;;;5070884;28;20467;-50
2021/07/05 08:16:57;;;;;;;0.32;0.20;;;;;;;;;;5072028;28;20039;-51
2021/07/05 08:19:23;;;;;;;0.40;0.30;;;;;;;;;;5072153;28;20012;-50
2021/07/05 08:21:48;;;;;;;0.20;0.20;;;;;;;;;;5072413;28;20485;-50
2021/07/05 08:24:14;;;;;;;0.28;0.20;;;;;;;;;;5072253;28;20451;-50
2021/07/05 08:26:39;;;;;;;1.27;0.40;;;;;;;;;;5072123;28;20107;-50
2021/07/05 08:29:05;;;;;;;0.10;0.10;;;;;;;;;;5072021;28;20039;-50
2021/07/05 08:31:30;;;;;;;0.20;0.20;;;;;;;;;;5072012;28;20066;-52
2021/07/05 08:33:59;;;;;;;0.10;0.10;;;;;;;;;;5071929;28;20557;-50
2021/07/05 08:36:25;;;;;;;0.75;0.30;;;;;;;;;;5070672;28;20043;-50
2021/07/05 08:38:51;;;;;;;3.95;0.60;;;;;;;;;;5072015;28;20012;-50
2021/07/05 08:41:16;;;;;;;0.20;0.20;;;;;;;;;;5071847;28;20478;-50
2021/07/05 08:43:42;;;;;;;2.90;0.30;;;;;;;;;;5072108;28;20013;-50
2021/07/05 08:46:09;;;;;;;0.47;0.30;;;;;;;;;;5072180;28;20112;-50
2021/07/05 08:48:39;;;;;;;0.98;0.10;;;;;;;;;;5071857;28;20016;-50
2021/07/05 08:51:05;;;;;;;0.47;0.10;;;;;;;;;;5071822;28;20090;-50
2021/07/05 08:53:31;;;;;;;0.17;0.13;;;;;;;;;;5071859;28;20452;-50
2021/07/05 08:55:57;;;;;;;0.55;0.38;;;;;;;;;;5087239;28;20036;-51
2021/07/05 08:58:22;;;;;;;0.25;0.20;;;;;;;;;;5072150;28;20016;-50
2021/07/05 09:00:48;;;;;;;0.38;0.10;;;;;;;;;;5071726;28;20028;-50
2021/07/05 09:03:14;;;;;;;3.92;0.13;;;;;;;;;;5071583;28;20024;-50
2021/07/05 09:05:39;;;;;;;0.52;0.10;;;;;;;;;;5071758;28;20021;-51
2021/07/05 09:08:14;;;;;;;0.20;0.20;;;;;;;;;;5071620;28;20021;-50
2021/07/05 09:10:47;;;;;;;1.08;0.10;;;;;;;;;;5073619;28;20082;-50
2021/07/05 09:13:14;;;;;;;0.38;0.20;;;;;;;;;;5073881;28;20032;-50
2021/07/05 09:15:49;;;;;;;0.10;0.10;;;;;;;;;;5075334;28;20020;-51
2021/07/05 09:18:29;;;;;;;1.35;0.13;;;;;;;;;;5073801;28;20078;-50
2021/07/05 09:20:58;;;;;;;0.15;0.10;;;;;;;;;;5075120;28;20123;-51
2021/07/05 09:23:23;;;;;;;1.58;0.13;;;;;;;;;;5075294;28;20033;-50
2021/07/05 09:25:52;;;;;;;0.20;0.13;;;;;;;;;;5075002;28;20024;-50
2021/07/05 09:28:18;;;;;;;0.15;0.10;;;;;;;;;;5074916;28;20482;-50
2021/07/05 09:30:45;;;;;;;0.50;0.38;;;;;;;;;;5074891;28;20033;-50
2021/07/05 09:33:18;;;;;;;0.10;0.10;;;;;;;;;;5074773;28;20016;-50
2021/07/05 09:35:43;;;;;;;0.25;0.20;;;;;;;;;;5074966;28;20079;-50
2021/07/05 09:38:09;;;;;;;0.30;0.20;;;;;;;;;;5074758;28;20475;-50
2021/07/05 09:40:35;;;;;;;0.10;0.10;;;;;;;;;;5073468;28;20063;-50
2021/07/05 09:43:00;;;;;;;0.10;0.10;;;;;;;;;;5073415;28;20015;-50
2021/07/05 09:45:30;;;;;;;0.30;0.20;;;;;;;;;;5074723;28;20086;-50
2021/07/05 09:48:16;;;;;;;0.20;0.20;;;;;;;;;;5074399;28;20016;-50
2021/07/05 09:50:42;;;;;;;0.30;0.10;;;;;;;;;;5073135;28;20082;-50
2021/07/05 09:53:27;;;;;;;0.10;0.10;;;;;;;;;;5090005;28;20571;-51
2021/07/05 09:55:53;;;;;;;0.10;0.10;;;;;;;;;;5073290;28;20115;-50
2021/07/05 09:58:31;;;;;;;1.55;0.10;;;;;;;;;;5074478;28;20104;-52
2021/07/05 10:00:56;;;;;;;1.85;0.10;;;;;;;;;;5074231;28;20032;-49
2021/07/05 10:03:31;;;;;;;0.20;0.10;;;;;;;;;;5074358;28;20029;-50
2021/07/05 10:05:58;;;;;;;3.08;0.30;;;;;;;;;;5074146;28;20529;-52
2021/07/05 10:08:29;;;;;;;0.10;0.10;;;;;;;;;;5074268;28;20356;-50
2021/07/05 10:11:04;;;;;;;2.10;0.30;;;;;;;;;;5074317;28;20078;-49
2021/07/05 10:13:30;;;;;;;0.52;0.20;;;;;;;;;;5074169;28;20057;-50
2021/07/05 10:16:08;;;;;;;0.10;0.10;;;;;;;;;;5074378;28;20017;-50
2021/07/05 10:18:34;;;;;;;1.55;0.10;;;;;;;;;;5074382;28;20403;-50
2021/07/05 10:21:00;;;;;;;0.00;0.00;;;;;;;;;;5073621;28;20024;-50
2021/07/05 10:23:25;;;;;;;2.42;0.10;;;;;;;;;;5073888;28;20086;-49
2021/07/05 10:25:50;;;;;;;0.15;0.10;;;;;;;;;;5074053;28;20020;-51
2021/07/05 10:28:17;;;;;;;0.10;0.10;;;;;;;;;;5073734;28;20530;-51
2021/07/05 10:30:43;;;;;;;0.43;0.10;;;;;;;;;;5073793;28;20485;-51
2021/07/05 10:33:09;;;;;;;0.30;0.30;;;;;;;;;;5073657;28;20024;-51
2021/07/05 10:35:45;;;;;;;0.15;0.15;;;;;;;;;;5073926;28;20023;-52
2021/07/05 10:38:14;;;;;;;1.10;0.57;;;;;;;;;;5073653;28;20115;-51
2021/07/05 10:40:41;;;;;;;0.60;0.55;;;;;;;;;;5073552;28;20070;-51
2021/07/05 10:43:07;;;;;;;0.70;0.70;;;;;;;;;;5073429;28;20025;-51
2021/07/05 10:45:50;;;;;;;1.75;0.80;;;;;;;;;;5073784;28;20021;-51
2021/07/05 10:48:17;;;;;;;0.95;0.55;;;;;;;;;;5073505;28;20036;-51
2021/07/05 10:50:44;;;;;;;3.70;0.63;;;;;;;;;;5073090;28;20036;-51
2021/07/05 10:53:10;;;;;;;0.30;0.30;;;;;;;;;;5073578;28;20115;-51
2021/07/05 10:55:44;;;;;;;0.30;0.30;;;;;;;;;;5073329;28;20521;-50
2021/07/05 10:58:14;;;;;;;1.27;0.30;;;;;;;;;;5073232;28;20031;-51
2021/07/05 11:00:41;;;;;;;0.50;0.50;;;;;;;;;;5073216;28;20048;-50
2021/07/05 11:03:07;;;;;;;0.50;0.40;;;;;;;;;;5073004;28;20043;-50
2021/07/05 11:05:32;;;;;;;2.70;1.00;;;;;;;;;;5072626;28;20482;-50
2021/07/05 11:08:16;;;;;;;2.08;0.40;;;;;;;;;;5073201;28;20024;-51
2021/07/05 11:10:43;;;;;;;0.32;0.32;;;;;;;;;;5072876;28;20517;-51
2021/07/05 11:13:09;;;;;;;0.40;0.40;;;;;;;;;;5072826;28;20023;-51
2021/07/05 11:15:49;;;;;;;0.40;0.40;;;;;;;;;;5073280;28;20024;-52
2021/07/05 11:18:50;;;;;;;0.60;0.50;;;;;;;;;;5088356;28;20055;-51
2021/07/05 11:21:16;;;;;;;3.63;0.57;;;;;;;;;;5030310;28;20037;-50
2021/07/05 11:24:00;;;;;;;0.35;0.35;;;;;;;;;;5064223;28;20032;-51
2021/07/05 11:26:34;;;;;;;0.80;0.60;;;;;;;;;;5072643;28;20414;-51
2021/07/05 11:29:15;;;;;;;0.40;0.28;;;;;;;;;;5072971;28;20028;-51
2021/07/05 11:32:00;;;;;;;0.82;0.50;;;;;;;;;;5088494;28;20037;-51
2021/07/05 11:34:33;;;;;;;0.30;0.30;;;;;;;;;;5070805;28;20111;-50
2021/07/05 11:36:58;;;;;;;;;;;;;;;;;;5072972;28;20471;-51
2021/07/05 11:39:29;;;;;;;4.63;0.40;;;;;;;;;;5072528;28;19917;-51
2021/07/05 11:41:55;;;;;;;1.08;0.40;;;;;;;;;;5072485;28;20047;-52
2021/07/05 11:44:40;;;;;;;1.48;0.47;;;;;;;;;;5072791;28;20024;-51
2021/07/05 11:47:05;;;;;;;4.38;0.45;;;;;;;;;;5071172;28;20045;-51
2021/07/05 11:49:34;;;;;;;0.40;0.30;;;;;;;;;;5072380;28;20380;-50
2021/07/05 11:52:00;;;;;;;0.77;0.40;;;;;;;;;;5072620;28;20039;-51
2021/07/05 11:54:28;;;;;;;2.53;0.32;;;;;;;;;;5072533;28;20045;-50
2021/07/05 11:56:55;;;;;;;0.20;0.20;;;;;;;;;;5072426;28;20108;-51
2021/07/05 11:59:28;;;;;;;4.20;0.30;;;;;;;;;;5072634;28;20029;-51
2021/07/05 12:01:58;;;;;;;0.30;0.30;;;;;;;;;;5072272;28;20033;-52
2021/07/05 12:04:28;;;;;;;0.28;0.28;;;;;;;;;;5071119;28;20020;-51
2021/07/05 12:06:53;;;;;;;0.45;0.30;;;;;;;;;;5072383;28;20067;-50
2021/07/05 12:09:25;;;;;;;0.45;0.38;;;;;;;;;;5087651;28;20048;-51
2021/07/05 12:11:50;;;;;;;0.63;0.50;;;;;;;;;;5072434;28;20093;-51
2021/07/05 12:14:18;;;;;;;0.85;0.38;;;;;;;;;;5072366;28;20023;-51
2021/07/05 12:16:45;;;;;;;0.43;0.43;;;;;;;;;;5072275;28;20032;-51
2021/07/05 12:19:12;;;;;;;1.85;0.40;;;;;;;;;;5071985;28;20305;-50
2021/07/05 12:21:47;;;;;;;0.65;0.40;;;;;;;;;;5072242;28;20456;-50
2021/07/05 12:24:16;;;;;;;0.28;0.22;;;;;;;;;;5071992;28;20463;-51
2021/07/05 12:27:04;;;;;;;0.63;0.35;;;;;;;;;;5070914;28;20017;-50
2021/07/05 12:29:42;;;;;;;0.40;0.40;;;;;;;;;;5066396;28;20124;-50
2021/07/05 12:32:15;;;;;;;1.15;0.60;;;;;;;;;;5071966;28;20395;-50
2021/07/05 12:34:51;;;;;;;0.55;0.28;;;;;;;;;;5072237;28;20033;-50
2021/07/05 12:37:27;;;;;;;0.28;0.28;;;;;;;;;;5071924;28;20033;-51
2021/07/05 12:39:56;;;;;;;0.40;0.30;;;;;;;;;;5070807;28;20500;-51
2021/07/05 12:42:24;;;;;;;1.48;0.43;;;;;;;;;;5072006;28;20016;-51
2021/07/05 12:44:50;;;;;;;0.22;0.22;;;;;;;;;;5074113;28;20077;-52
2021/07/05 12:47:16;;;;;;;1.48;0.47;;;;;;;;;;5076063;28;20363;-51
2021/07/05 12:49:41;;;;;;;2.33;0.22;;;;;;;;;;5075568;28;20510;-50
2021/07/05 12:52:07;;;;;;;0.52;0.40;;;;;;;;;;5074591;28;20041;-51
2021/07/05 12:54:33;;;;;;;0.57;0.47;;;;;;;;;;5075611;28;20016;-51
2021/07/05 12:57:17;;;;;;;0.57;0.40;;;;;;;;;;5074299;28;20017;-51
2021/07/05 12:59:59;;;;;;;2.47;0.30;;;;;;;;;;5075846;28;20470;-51
2021/07/05 13:02:25;;;;;;;1.00;0.45;;;;;;;;;;5091200;28;20695;-51
2021/07/05 13:05:03;;;;;;;0.50;0.50;;;;;;;;;;5075447;28;20012;-50
2021/07/05 13:07:28;;;;;;;1.70;0.43;;;;;;;;;;5075474;28;20063;-51
2021/07/05 13:09:59;;;;;;;0.25;0.25;;;;;;;;;;5074187;28;20052;-51
2021/07/05 13:12:24;;;;;;;0.77;0.40;;;;;;;;;;5075180;28;20037;-52
2021/07/05 13:14:49;;;;;;;0.60;0.45;;;;;;;;;;5075671;28;20066;-51
2021/07/05 13:17:20;;;;;;;0.40;0.40;;;;;;;;;;5073935;28;20029;-50
2021/07/05 13:19:46;;;;;;;1.15;0.35;;;;;;;;;;5075193;28;20024;-51
2021/07/05 13:22:12;;;;;;;0.85;0.38;;;;;;;;;;5075061;28;20479;-51
2021/07/05 13:24:41;;;;;;;0.57;0.50;;;;;;;;;;5091036;28;20153;-51
2021/07/05 13:27:14;;;;;;;2.85;0.45;;;;;;;;;;5075003;28;20036;-51
2021/07/05 13:29:39;;;;;;;0.90;0.40;;;;;;;;;;5075034;28;20028;-51
2021/07/05 13:32:18;;;;;;;1.08;0.40;;;;;;;;;;5074908;28;20037;-52
2021/07/05 13:34:45;;;;;;;0.40;0.40;;;;;;;;;;5074861;28;20135;-52
2021/07/05 13:37:12;;;;;;;0.50;0.43;;;;;;;;;;5074884;28;20050;-52
2021/07/05 13:39:39;;;;;;;2.83;0.32;;;;;;;;;;5074835;28;20032;-51
2021/07/05 13:42:09;;;;;;;0.63;0.43;;;;;;;;;;5074959;28;20054;-51
2021/07/05 13:44:35;;;;;;;1.35;0.82;;;;;;;;;;5075034;28;20227;-51
2021/07/05 13:47:30;;;;;;;0.88;0.40;;;;;;;;;;5073398;28;20073;-50
2021/07/05 13:50:14;;;;;;;0.45;0.40;;;;;;;;;;5065346;28;20053;-52
2021/07/05 13:52:44;;;;;;;2.35;0.47;;;;;;;;;;5074459;28;20079;-51
2021/07/05 13:55:27;;;;;;;0.30;0.30;;;;;;;;;;5074174;28;20037;-52
2021/07/05 13:57:54;;;;;;;0.90;0.50;;;;;;;;;;5090383;28;20039;-51
2021/07/05 14:00:19;;;;;;;0.43;0.43;;;;;;;;;;5074527;28;20024;-51
2021/07/05 14:02:45;;;;;;;0.57;0.30;;;;;;;;;;5074642;28;20028;-52
2021/07/05 14:05:30;;;;;;;0.32;0.28;;;;;;;;;;5073070;28;20021;-51
2021/07/05 14:07:59;;;;;;;0.65;0.40;;;;;;;;;;5074361;28;20029;-52
2021/07/05 14:10:26;;;;;;;1.23;0.77;;;;;;;;;;5074297;28;20123;-52
2021/07/05 14:12:53;;;;;;;0.40;0.30;;;;;;;;;;5074485;28;20116;-51
2021/07/05 14:15:18;;;;;;;0.50;0.30;;;;;;;;;;5074093;28;20047;-51
2021/07/05 14:17:43;;;;;;;0.32;0.22;;;;;;;;;;5074163;28;20036;-52
2021/07/05 14:20:10;;;;;;;1.00;0.40;;;;;;;;;;5074264;28;20017;-51
2021/07/05 14:22:35;;;;;;;0.30;0.30;;;;;;;;;;5074013;28;20122;-50
2021/07/05 14:25:01;;;;;;;0.63;0.50;;;;;;;;;;5073918;28;20016;-50
2021/07/05 14:27:26;;;;;;;0.30;0.30;;;;;;;;;;5089526;28;20044;-51
2021/07/05 14:29:52;;;;;;;0.40;0.30;;;;;;;;;;5074161;28;20021;-51
2021/07/05 14:32:18;;;;;;;0.25;0.20;;;;;;;;;;5073849;28;20040;-50
2021/07/05 14:34:43;;;;;;;0.30;0.30;;;;;;;;;;5073765;28;20486;-51
2021/07/05 14:37:09;;;;;;;0.65;0.40;;;;;;;;;;5073689;28;20098;-52
2021/07/05 14:39:34;;;;;;;0.40;0.30;;;;;;;;;;5072390;28;20021;-51
2021/07/05 14:41:59;;;;;;;1.33;0.50;;;;;;;;;;5073879;28;20032;-51
2021/07/05 14:44:26;;;;;;;0.35;0.35;;;;;;;;;;5073437;28;20017;-51
2021/07/05 14:46:52;;;;;;;0.65;0.52;;;;;;;;;;5073617;28;20459;-52